createdAt,value
2023-03-26T00:00:20.014Z,5.68
2023-03-26T00:02:25.061Z,4.88
2023-03-26T00:04:33.946Z,4.28
2023-03-26T00:06:41.943Z,5.38
2023-03-26T00:08:50.280Z,4.18
2023-03-26T00:10:55.243Z,4.93
2023-03-26T00:13:00.102Z,5.85
2023-03-26T00:15:04.907Z,6.32
2023-03-26T00:17:10.386Z,5.30
2023-03-26T00:19:15.699Z,6.15
2023-03-26T00:21:26.401Z,5.28
2023-03-26T00:23:37.875Z,6.07
2023-03-26T00:25:43.694Z,5.68
2023-03-26T00:27:49.786Z,5.82
2023-03-26T00:29:56.491Z,6.88
2023-03-26T00:32:01.221Z,7.28
2023-03-26T00:34:06.034Z,7.85
2023-03-26T00:36:14.907Z,7.45
2023-03-26T00:38:22.596Z,7.40
2023-03-26T00:40:27.398Z,7.93
2023-03-26T00:42:32.816Z,6.30
2023-03-26T00:44:37.575Z,6.75
2023-03-26T00:46:42.888Z,8.25
2023-03-26T00:48:48.370Z,7.07
2023-03-26T00:50:53.704Z,7.50
2023-03-26T00:52:59.072Z,7.10
2023-03-26T00:55:06.605Z,6.32
2023-03-26T00:57:20.211Z,5.70
2023-03-26T00:59:32.142Z,7.40
2023-03-26T01:01:36.869Z,6.97
2023-03-26T01:03:53.198Z,5.70
2023-03-26T01:06:11.185Z,7.57
2023-03-26T01:08:22.872Z,7.22
2023-03-26T01:10:38.833Z,6.80
2023-03-26T01:12:44.306Z,8.10
2023-03-26T01:14:51.187Z,6.70
2023-03-26T01:16:58.182Z,6.95
2023-03-26T01:19:03.165Z,7.00
2023-03-26T01:21:09.934Z,6.25
2023-03-26T01:23:15.964Z,7.35
2023-03-26T01:25:26.184Z,5.45
2023-03-26T01:27:43.164Z,6.90
2023-03-26T01:29:54.312Z,6.00
2023-03-26T01:32:10.073Z,5.85
2023-03-26T01:34:24.961Z,6.13
2023-03-26T01:36:38.857Z,7.45
2023-03-26T01:38:48.940Z,7.63
2023-03-26T01:41:02.750Z,6.63
2023-03-26T01:43:14.504Z,7.30
2023-03-26T01:45:23.986Z,6.18
2023-03-26T01:47:29.266Z,5.90
2023-03-26T01:49:34.766Z,5.60
2023-03-26T01:51:39.744Z,7.43
2023-03-26T01:53:46.939Z,6.22
2023-03-26T01:56:04.548Z,6.25
2023-03-26T01:58:16.263Z,5.55
2023-03-26T02:00:26.163Z,6.50
2023-03-26T02:02:38.991Z,6.93
2023-03-26T02:04:53.581Z,5.85
2023-03-26T02:07:05.918Z,7.10
2023-03-26T02:09:18.542Z,8.27
2023-03-26T02:11:34.765Z,7.00
2023-03-26T02:13:41.090Z,6.15
2023-03-26T02:15:58.278Z,6.45
2023-03-26T02:18:04.258Z,7.15
2023-03-26T02:20:12.096Z,7.47
2023-03-26T02:22:18.047Z,7.75
2023-03-26T02:24:23.565Z,7.53
2023-03-26T02:26:34.048Z,6.88
2023-03-26T02:28:41.831Z,7.30
2023-03-26T02:30:47.673Z,8.95
2023-03-26T02:32:52.550Z,8.93
2023-03-26T02:34:57.437Z,8.90
2023-03-26T02:37:02.962Z,7.53
2023-03-26T02:39:07.662Z,6.68
2023-03-26T02:41:12.513Z,6.78
2023-03-26T02:43:19.826Z,6.40
2023-03-26T02:45:24.544Z,7.05
2023-03-26T02:47:29.331Z,7.10
2023-03-26T02:49:34.472Z,7.68
2023-03-26T02:51:39.510Z,7.57
2023-03-26T02:53:44.674Z,6.68
2023-03-26T02:55:49.436Z,7.03
2023-03-26T02:57:54.185Z,8.05
2023-03-26T03:00:02.790Z,8.38
2023-03-26T03:02:07.717Z,9.18
2023-03-26T03:04:12.454Z,7.82
2023-03-26T03:06:19.082Z,8.80
2023-03-26T03:08:26.513Z,8.40
2023-03-26T03:10:34.562Z,7.18
2023-03-26T03:12:39.752Z,8.38
2023-03-26T03:14:46.946Z,8.70
2023-03-26T03:16:54.356Z,6.43
2023-03-26T03:19:03.770Z,7.20
2023-03-26T03:21:09.884Z,7.28
2023-03-26T03:23:14.754Z,5.78
2023-03-26T03:25:22.391Z,6.43
2023-03-26T03:27:28.577Z,6.60
2023-03-26T03:29:35.618Z,7.53
2023-03-26T03:31:41.459Z,6.00
2023-03-26T03:33:51.486Z,7.20
2023-03-26T03:35:56.501Z,5.53
2023-03-26T03:38:02.026Z,6.22
2023-03-26T03:40:08.867Z,6.25
2023-03-26T03:42:14.485Z,6.10
2023-03-26T03:44:19.431Z,5.45
2023-03-26T03:46:24.315Z,5.45
2023-03-26T03:48:29.412Z,6.43
2023-03-26T03:50:36.916Z,5.85
2023-03-26T03:52:41.695Z,5.20
2023-03-26T03:54:48.161Z,6.25
2023-03-26T03:56:52.917Z,5.38
2023-03-26T03:58:58.554Z,5.68
2023-03-26T04:01:04.803Z,4.90
2023-03-26T04:03:10.237Z,5.57
2023-03-26T04:05:15.995Z,4.68
2023-03-26T04:07:23.577Z,5.55
2023-03-26T04:09:28.496Z,4.88
2023-03-26T04:11:33.404Z,7.25
2023-03-26T04:13:38.173Z,5.95
2023-03-26T04:15:43.149Z,6.10
2023-03-26T04:17:48.051Z,5.53
2023-03-26T04:19:53.267Z,6.32
2023-03-26T04:22:02.485Z,6.68
2023-03-26T04:24:11.071Z,4.90
2023-03-26T04:26:20.103Z,5.53
2023-03-26T04:28:31.374Z,5.50
2023-03-26T04:30:38.502Z,5.43
2023-03-26T04:32:44.919Z,5.55
2023-03-26T04:34:50.128Z,5.97
2023-03-26T04:36:55.925Z,5.10
2023-03-26T04:39:03.897Z,5.50
2023-03-26T04:41:13.341Z,5.82
2023-03-26T04:43:19.626Z,6.00
2023-03-26T04:45:24.300Z,5.32
2023-03-26T04:47:31.796Z,5.57
2023-03-26T04:49:36.708Z,6.15
2023-03-26T04:51:45.049Z,5.05
2023-03-26T04:53:57.107Z,5.18
2023-03-26T04:56:06.355Z,5.82
2023-03-26T04:58:14.332Z,5.53
2023-03-26T05:00:20.805Z,4.75
2023-03-26T05:02:26.298Z,5.03
2023-03-26T05:04:34.219Z,4.85
2023-03-26T05:06:39.970Z,4.78
2023-03-26T05:08:44.805Z,4.90
2023-03-26T05:10:49.628Z,6.07
2023-03-26T05:12:54.608Z,5.95
2023-03-26T05:15:02.171Z,5.45
2023-03-26T05:17:10.935Z,5.88
2023-03-26T05:19:16.015Z,5.55
2023-03-26T05:21:21.108Z,5.45
2023-03-26T05:23:27.706Z,6.85
2023-03-26T05:25:32.791Z,5.55
2023-03-26T05:27:37.476Z,6.35
2023-03-26T05:29:42.201Z,7.53
2023-03-26T05:31:49.663Z,6.63
2023-03-26T05:33:55.312Z,5.90
2023-03-26T05:36:07.366Z,5.68
2023-03-26T05:38:12.123Z,5.95
2023-03-26T05:40:18.363Z,7.25
2023-03-26T05:42:23.373Z,6.50
2023-03-26T05:44:28.391Z,6.25
2023-03-26T05:46:33.126Z,6.85
2023-03-26T05:48:41.224Z,7.40
2023-03-26T05:50:46.067Z,6.30
2023-03-26T05:52:50.797Z,5.43
2023-03-26T05:54:55.715Z,6.60
2023-03-26T05:57:00.955Z,6.75
2023-03-26T05:59:05.708Z,6.38
2023-03-26T06:01:16.843Z,7.25
2023-03-26T06:03:23.424Z,6.68
2023-03-26T06:05:32.886Z,7.55
2023-03-26T06:07:37.991Z,7.97
2023-03-26T06:09:43.916Z,7.18
2023-03-26T06:11:48.949Z,6.68
2023-03-26T06:13:54.004Z,8.45
2023-03-26T06:15:58.991Z,8.00
2023-03-26T06:18:04.003Z,8.38
2023-03-26T06:20:10.478Z,7.13
2023-03-26T06:22:19.169Z,8.43
2023-03-26T06:24:24.115Z,8.95
2023-03-26T06:26:28.991Z,7.70
2023-03-26T06:28:33.920Z,8.30
2023-03-26T06:30:38.999Z,8.13
2023-03-26T06:32:46.137Z,8.85
2023-03-26T06:34:51.067Z,9.23
2023-03-26T06:36:55.926Z,8.95
2023-03-26T06:39:07.843Z,9.70
2023-03-26T06:41:12.888Z,9.37
2023-03-26T06:43:17.620Z,9.27
2023-03-26T06:45:22.378Z,9.02
2023-03-26T06:47:27.407Z,8.85
2023-03-26T06:49:32.266Z,9.52
2023-03-26T06:51:38.813Z,10.15
2023-03-26T06:53:44.036Z,8.57
2023-03-26T06:55:51.458Z,10.10
2023-03-26T06:57:58.437Z,8.73
2023-03-26T07:00:04.039Z,9.38
2023-03-26T07:02:08.809Z,9.35
2023-03-26T07:04:13.697Z,9.02
2023-03-26T07:06:20.139Z,10.27
2023-03-26T07:08:26.423Z,9.07
2023-03-26T07:10:32.091Z,8.13
2023-03-26T07:12:43.063Z,8.48
2023-03-26T07:14:48.304Z,8.95
2023-03-26T07:16:53.128Z,9.45
2023-03-26T07:18:57.909Z,8.70
2023-03-26T07:21:03.538Z,8.07
2023-03-26T07:23:09.038Z,6.97
2023-03-26T07:25:16.093Z,8.20
2023-03-26T07:27:38.958Z,9.07
2023-03-26T07:29:51.824Z,8.43
2023-03-26T07:32:03.916Z,9.02
2023-03-26T07:34:22.306Z,8.88
2023-03-26T07:36:35.350Z,8.48
2023-03-26T07:38:52.040Z,7.78
2023-03-26T07:41:06.205Z,7.53
2023-03-26T07:43:24.625Z,7.63
2023-03-26T07:45:38.220Z,7.65
2023-03-26T07:47:47.237Z,6.80
2023-03-26T07:49:56.357Z,7.38
2023-03-26T07:52:03.072Z,6.75
2023-03-26T07:54:08.909Z,6.50
2023-03-26T07:56:18.394Z,7.82
2023-03-26T07:58:42.617Z,8.00
2023-03-26T08:00:55.285Z,7.13
2023-03-26T08:03:27.653Z,6.60
2023-03-26T08:05:36.864Z,6.95
2023-03-26T08:07:53.025Z,6.15
2023-03-26T08:10:06.787Z,6.20
2023-03-26T08:12:21.442Z,6.18
2023-03-26T08:14:46.396Z,6.50
2023-03-26T08:16:58.708Z,6.18
2023-03-26T08:19:12.972Z,5.90
2023-03-26T08:21:22.555Z,7.28
2023-03-26T08:23:32.815Z,6.07
2023-03-26T08:25:42.523Z,6.00
2023-03-26T08:27:59.168Z,5.85
2023-03-26T08:30:11.630Z,5.47
2023-03-26T08:32:22.113Z,6.38
2023-03-26T08:34:26.999Z,6.35
2023-03-26T08:36:32.122Z,6.10
2023-03-26T08:38:36.932Z,6.57
2023-03-26T08:41:25.821Z,6.85
2023-03-26T08:43:54.457Z,6.45
2023-03-26T08:46:43.905Z,6.28
2023-03-26T08:49:17.712Z,6.03
2023-03-26T08:54:18.906Z,5.75
2023-03-26T08:56:30.021Z,5.88
2023-03-26T08:59:09.072Z,5.53
2023-03-26T09:01:38.881Z,4.35
2023-03-26T09:04:08.693Z,5.00
2023-03-26T09:06:30.326Z,6.20
2023-03-26T09:09:19.266Z,5.65
2023-03-26T09:11:57.268Z,5.57
2023-03-26T09:14:24.557Z,6.10
2023-03-26T09:16:47.131Z,5.40
2023-03-26T09:19:24.341Z,4.95
2023-03-26T09:22:01.849Z,5.18
2023-03-26T09:24:37.767Z,5.88
2023-03-26T09:26:51.588Z,6.90
2023-03-26T09:29:38.522Z,7.10
2023-03-26T09:32:34.076Z,5.88
2023-03-26T09:35:01.931Z,6.50
2023-03-26T09:37:21.478Z,6.10
2023-03-26T09:39:49.194Z,6.53
2023-03-26T09:42:07.288Z,6.10
2023-03-26T09:44:50.826Z,5.68
2023-03-26T09:47:25.442Z,5.43
2023-03-26T09:49:45.788Z,6.90
2023-03-26T09:52:41.548Z,7.50
2023-03-26T09:55:20.438Z,9.80
2023-03-26T09:57:37.308Z,8.80
2023-03-26T10:00:13.462Z,9.13
2023-03-26T10:02:45.949Z,8.05
2023-03-26T10:05:11.901Z,10.20
2023-03-26T10:07:39.073Z,10.95
2023-03-26T10:09:53.979Z,10.07
2023-03-26T10:12:09.724Z,10.55
2023-03-26T10:14:23.724Z,10.40
2023-03-26T10:16:37.267Z,10.90
2023-03-26T10:18:56.751Z,10.77
2023-03-26T10:21:09.141Z,10.00
2023-03-26T10:23:40.315Z,8.65
2023-03-26T10:26:07.348Z,8.00
2023-03-26T10:28:31.802Z,10.30
2023-03-26T10:31:12.841Z,8.65
2023-03-26T10:33:34.641Z,7.40
2023-03-26T10:35:56.288Z,7.55
2023-03-26T10:38:16.870Z,7.32
2023-03-26T10:40:28.693Z,6.45
2023-03-26T10:42:58.259Z,6.00
2023-03-26T10:45:31.329Z,6.00
2023-03-26T10:47:58.658Z,5.65
2023-03-26T10:50:28.347Z,4.40
2023-03-26T10:52:37.895Z,6.18
2023-03-26T10:54:54.486Z,5.18
2023-03-26T10:57:07.429Z,4.97
2023-03-26T10:59:16.407Z,3.80
2023-03-26T11:01:35.098Z,4.53
2023-03-26T11:03:52.278Z,3.95
2023-03-26T11:06:04.489Z,5.05
2023-03-26T11:08:16.669Z,4.50
2023-03-26T11:10:28.303Z,4.70
2023-03-26T11:12:46.385Z,4.65
2023-03-26T11:15:00.535Z,4.70
2023-03-26T11:17:40.366Z,4.78
2023-03-26T11:19:53.241Z,4.75
2023-03-26T11:22:04.244Z,4.82
2023-03-26T11:24:40.039Z,4.15
2023-03-26T11:26:56.046Z,4.05
2023-03-26T11:29:31.645Z,3.85
2023-03-26T11:31:55.594Z,4.35
2023-03-26T11:34:06.552Z,4.03
2023-03-26T11:36:15.714Z,4.78
2023-03-26T11:38:27.013Z,4.70
2023-03-26T11:40:37.539Z,3.75
2023-03-26T11:42:46.597Z,4.72
2023-03-26T11:44:58.170Z,5.18
2023-03-26T11:47:10.316Z,4.03
2023-03-26T11:49:19.613Z,3.90
2023-03-26T11:51:31.064Z,4.38
2023-03-26T11:53:38.933Z,3.55
2023-03-26T11:55:47.716Z,3.67
2023-03-26T11:57:58.469Z,4.72
2023-03-26T12:00:17.024Z,4.70
2023-03-26T12:02:29.698Z,4.32
2023-03-26T12:04:40.875Z,3.75
2023-03-26T12:06:56.704Z,3.92
2023-03-26T12:09:02.000Z,4.15
2023-03-26T12:11:11.841Z,3.50
2023-03-26T12:13:36.975Z,4.18
2023-03-26T12:15:53.003Z,2.67
2023-03-26T12:17:59.882Z,4.07
2023-03-26T12:20:45.231Z,3.28
2023-03-26T12:22:54.291Z,3.72
2023-03-26T12:25:18.430Z,3.97
2023-03-26T12:27:28.688Z,3.60
2023-03-26T12:29:38.253Z,4.35
2023-03-26T12:31:55.685Z,4.90
2023-03-26T12:34:10.460Z,4.55
2023-03-26T12:36:29.746Z,3.78
2023-03-26T12:38:37.524Z,3.20
2023-03-26T12:40:43.614Z,3.85
2023-03-26T12:44:54.325Z,3.45
2023-03-26T12:45:24.281Z,4.93
2023-03-26T12:48:01.143Z,4.03
2023-03-26T12:50:02.538Z,3.83
2023-03-26T12:52:20.867Z,3.10
2023-03-26T12:54:43.744Z,3.30
2023-03-26T12:57:12.452Z,4.18
2023-03-26T12:59:33.400Z,3.83
2023-03-26T13:01:50.718Z,3.60
2023-03-26T13:04:18.542Z,3.88
2023-03-26T13:06:59.392Z,2.70
2023-03-26T13:09:32.170Z,4.53
2023-03-26T13:11:50.187Z,3.55
2023-03-26T13:14:10.419Z,3.05
2023-03-26T13:16:25.448Z,2.83
2023-03-26T13:18:50.889Z,3.63
2023-03-26T13:21:06.228Z,3.33
2023-03-26T13:23:19.997Z,3.22
2023-03-26T13:25:36.730Z,3.38
2023-03-26T13:27:55.624Z,2.90
2023-03-26T13:30:09.217Z,3.60
2023-03-26T13:32:22.597Z,3.00
2023-03-26T13:34:38.363Z,2.88
2023-03-26T13:36:58.100Z,3.85
2023-03-26T13:39:32.592Z,3.03
2023-03-26T13:41:50.719Z,3.70
2023-03-26T13:44:09.004Z,3.05
2023-03-26T13:46:27.674Z,2.95
2023-03-26T13:48:39.804Z,3.00
2023-03-26T13:50:47.730Z,3.40
2023-03-26T13:52:59.115Z,3.45
2023-03-26T13:55:20.800Z,3.38
2023-03-26T13:57:32.125Z,3.55
2023-03-26T13:59:41.919Z,3.22
2023-03-26T14:01:53.683Z,3.13
2023-03-26T14:04:04.358Z,2.85
2023-03-26T14:06:15.715Z,4.35
2023-03-26T14:08:28.977Z,2.97
2023-03-26T14:10:40.302Z,3.15
2023-03-26T14:12:55.480Z,3.78
2023-03-26T14:15:04.467Z,3.00
2023-03-26T14:17:19.106Z,3.90
2023-03-26T14:19:52.688Z,2.88
2023-03-26T14:22:06.970Z,2.55
2023-03-26T14:24:37.846Z,3.10
2023-03-26T14:27:05.590Z,2.38
2023-03-26T14:29:29.729Z,2.05
2023-03-26T14:31:41.999Z,2.03
2023-03-26T14:34:25.116Z,2.90
2023-03-26T14:36:49.585Z,2.22
2023-03-26T14:39:29.575Z,3.10
2023-03-26T14:41:46.099Z,2.90
2023-03-26T14:44:13.234Z,2.90
2023-03-26T14:46:30.401Z,2.75
2023-03-26T14:49:16.406Z,2.80
2023-03-26T14:51:35.396Z,3.70
2023-03-26T14:53:44.586Z,2.33
2023-03-26T14:56:21.263Z,2.50
2023-03-26T14:59:01.947Z,2.75
2023-03-26T15:01:32.132Z,2.88
2023-03-26T15:04:12.918Z,2.72
2023-03-26T15:07:10.483Z,2.70
2023-03-26T15:09:46.409Z,2.22
2023-03-26T15:12:12.535Z,2.47
2023-03-26T15:14:44.398Z,2.10
2023-03-26T15:17:29.862Z,2.72
2023-03-26T15:19:58.914Z,3.00
2023-03-26T15:22:41.015Z,4.07
2023-03-26T15:25:21.363Z,3.20
2023-03-26T15:27:50.169Z,2.45
2023-03-26T15:30:15.310Z,2.63
2023-03-26T15:32:52.957Z,2.58
2023-03-26T15:35:30.500Z,2.50
2023-03-26T15:38:14.923Z,2.95
2023-03-26T15:40:47.105Z,2.75
2023-03-26T15:43:03.425Z,2.60
2023-03-26T15:45:37.144Z,3.22
2023-03-26T15:50:21.925Z,2.83
2023-03-26T15:52:33.190Z,2.83
2023-03-26T15:54:48.518Z,2.47
2023-03-26T15:57:07.483Z,2.95
2023-03-26T15:59:26.784Z,2.17
2023-03-26T16:01:46.296Z,2.72
2023-03-26T16:04:06.160Z,2.63
2023-03-26T16:06:32.094Z,2.42
2023-03-26T16:08:47.307Z,2.85
2023-03-26T16:10:56.190Z,2.60
2023-03-26T16:13:36.961Z,2.85
2023-03-26T16:15:42.939Z,2.45
2023-03-26T16:18:22.949Z,2.63
2023-03-26T16:20:33.604Z,2.92
2023-03-26T16:22:44.007Z,2.35
2023-03-26T16:25:29.068Z,2.67
2023-03-26T16:27:37.077Z,2.53
2023-03-26T16:30:20.604Z,2.55
2023-03-26T16:32:28.975Z,2.80
2023-03-26T16:34:42.864Z,2.72
2023-03-26T16:36:51.863Z,2.88
2023-03-26T16:39:11.865Z,3.08
2023-03-26T16:41:22.221Z,2.60
2023-03-26T16:44:06.238Z,2.70
2023-03-26T16:48:28.834Z,2.30
2023-03-26T16:50:46.922Z,2.85
2023-03-26T16:53:02.257Z,2.30
2023-03-26T16:55:17.104Z,2.55
2023-03-26T16:57:28.959Z,2.35
2023-03-26T17:00:05.621Z,2.53
2023-03-26T17:02:26.824Z,3.63
2023-03-26T17:04:35.035Z,2.38
2023-03-26T17:07:01.990Z,2.15
2023-03-26T17:09:24.861Z,2.63
2023-03-26T17:11:40.291Z,3.17
2023-03-26T17:13:53.282Z,2.50
2023-03-26T17:16:07.926Z,2.95
2023-03-26T17:18:40.225Z,3.13
2023-03-26T17:20:56.076Z,3.08
2023-03-26T17:23:12.550Z,2.78
2023-03-26T17:25:34.003Z,2.55
2023-03-26T17:27:47.262Z,2.72
2023-03-26T17:30:26.267Z,4.03
2023-03-26T17:32:56.306Z,3.50
2023-03-26T17:35:07.065Z,2.30
2023-03-26T17:37:28.843Z,2.65
2023-03-26T17:40:12.459Z,2.15
2023-03-26T17:42:33.103Z,3.28
2023-03-26T17:44:48.072Z,2.90
2023-03-26T17:46:54.792Z,2.88
2023-03-26T17:49:06.102Z,2.38
2023-03-26T17:51:30.258Z,2.80
2023-03-26T17:53:43.781Z,2.97
2023-03-26T17:55:51.437Z,2.65
2023-03-26T17:58:01.314Z,2.55
2023-03-26T18:00:09.107Z,3.30
2023-03-26T18:02:18.880Z,2.50
2023-03-26T18:04:34.375Z,2.72
2023-03-26T18:06:54.228Z,2.40
2023-03-26T18:09:13.931Z,2.58
2023-03-26T18:12:00.363Z,2.95
2023-03-26T18:14:35.514Z,3.70
2023-03-26T18:16:46.813Z,2.70
2023-03-26T18:18:54.540Z,2.95
2023-03-26T18:21:03.684Z,3.05
2023-03-26T18:23:23.484Z,3.33
2023-03-26T18:25:34.346Z,3.15
2023-03-26T18:27:42.024Z,2.80
2023-03-26T18:29:48.978Z,2.53
2023-03-26T18:32:00.712Z,3.55
2023-03-26T18:34:14.995Z,2.67
2023-03-26T18:36:21.545Z,4.00
2023-03-26T18:38:35.825Z,3.10
2023-03-26T18:40:45.418Z,3.17
2023-03-26T18:42:52.827Z,2.50
2023-03-26T18:45:02.071Z,2.88
2023-03-26T18:47:13.721Z,2.78
2023-03-26T18:49:19.872Z,2.55
2023-03-26T18:51:25.533Z,3.50
2023-03-26T18:53:32.946Z,2.95
2023-03-26T18:55:40.279Z,3.03
2023-03-26T18:57:49.668Z,2.45
2023-03-26T18:59:56.847Z,3.20
2023-03-26T19:02:04.517Z,3.35
2023-03-26T19:04:17.463Z,3.42
2023-03-26T19:06:23.494Z,2.75
2023-03-26T19:08:30.607Z,3.03
2023-03-26T19:10:36.837Z,3.33
2023-03-26T19:12:41.826Z,4.03
2023-03-26T19:15:01.196Z,3.13
2023-03-26T19:17:09.031Z,3.67
2023-03-26T19:19:23.274Z,3.40
2023-03-26T19:21:28.606Z,2.88
2023-03-26T19:23:35.978Z,3.83
2023-03-26T19:25:46.335Z,2.60
2023-03-26T19:27:52.015Z,2.22
2023-03-26T19:29:57.242Z,2.92
2023-03-26T19:32:06.535Z,2.45
2023-03-26T19:34:28.094Z,2.60
2023-03-26T19:36:37.191Z,3.22
2023-03-26T19:38:47.371Z,2.78
2023-03-26T19:40:53.614Z,2.88
2023-03-26T19:43:01.644Z,2.83
2023-03-26T19:45:17.274Z,3.30
2023-03-26T19:47:35.222Z,2.85
2023-03-26T19:49:56.909Z,2.40
2023-03-26T19:52:16.475Z,2.65
2023-03-26T19:54:21.439Z,3.70
2023-03-26T19:56:27.057Z,2.15
2023-03-26T19:58:32.134Z,2.60
2023-03-26T20:00:37.040Z,2.45
2023-03-26T20:02:42.697Z,2.50
2023-03-26T20:04:47.939Z,2.15
2023-03-26T20:06:55.366Z,2.47
2023-03-26T20:09:01.285Z,3.63
2023-03-26T20:11:06.408Z,2.60
2023-03-26T20:13:17.486Z,2.30
2023-03-26T20:15:26.231Z,2.13
2023-03-26T20:17:31.280Z,2.40
2023-03-26T20:19:39.305Z,2.30
2023-03-26T20:21:47.296Z,2.60
2023-03-26T20:23:56.053Z,2.47
2023-03-26T20:26:00.906Z,2.33
2023-03-26T20:28:06.111Z,3.90
2023-03-26T20:30:14.054Z,2.83
2023-03-26T20:32:25.709Z,2.30
2023-03-26T20:34:32.253Z,2.25
2023-03-26T20:36:37.153Z,3.13
2023-03-26T20:38:44.003Z,2.08
2023-03-26T20:40:52.291Z,2.45
2023-03-26T20:42:57.042Z,2.60
2023-03-26T20:45:02.133Z,2.78
2023-03-26T20:47:07.673Z,3.22
2023-03-26T20:49:13.190Z,2.00
2023-03-26T20:51:20.095Z,1.85
2023-03-26T20:53:25.150Z,2.63
2023-03-26T20:55:30.087Z,2.08
2023-03-26T20:57:37.413Z,1.98
2023-03-26T20:59:44.775Z,2.08
2023-03-26T21:01:50.129Z,1.98
2023-03-26T21:03:54.909Z,2.47
2023-03-26T21:06:03.408Z,2.00
2023-03-26T21:08:09.028Z,2.30
2023-03-26T21:10:20.754Z,1.70
2023-03-26T21:12:39.938Z,2.20
2023-03-26T21:14:48.088Z,1.67
2023-03-26T21:16:53.795Z,1.92
2023-03-26T21:18:59.603Z,2.63
2023-03-26T21:21:28.239Z,2.03
2023-03-26T21:23:39.301Z,2.47
2023-03-26T21:25:56.723Z,2.05
2023-03-26T21:28:12.098Z,2.08
2023-03-26T21:30:20.351Z,1.92
2023-03-26T21:32:26.466Z,2.40
2023-03-26T21:34:33.584Z,1.88
2023-03-26T21:36:40.392Z,1.83
2023-03-26T21:38:46.139Z,1.77
2023-03-26T21:40:58.312Z,1.63
2023-03-26T21:43:04.193Z,1.38
2023-03-26T21:45:10.712Z,1.50
2023-03-26T21:47:21.641Z,2.70
2023-03-26T21:49:27.040Z,1.83
2023-03-26T21:51:34.243Z,1.63
2023-03-26T21:53:39.833Z,2.05
2023-03-26T21:55:54.130Z,1.80
2023-03-26T21:58:19.640Z,1.65
2023-03-26T22:00:33.602Z,1.75
2023-03-26T22:02:57.651Z,1.70
2023-03-26T22:05:07.032Z,1.73
2023-03-26T22:07:16.576Z,1.40
2023-03-26T22:09:30.078Z,2.13
2023-03-26T22:11:41.676Z,1.80
2023-03-26T22:13:46.950Z,2.55
2023-03-26T22:15:51.731Z,1.90
2023-03-26T22:18:03.435Z,1.90
2023-03-26T22:20:13.659Z,2.00
2023-03-26T22:22:18.691Z,1.80
2023-03-26T22:24:23.669Z,1.67
2023-03-26T22:26:28.612Z,1.75
2023-03-26T22:28:33.598Z,1.65
2023-03-26T22:30:38.929Z,1.50
2023-03-26T22:32:46.145Z,1.70
2023-03-26T22:34:54.014Z,1.92
2023-03-26T22:36:59.310Z,1.70
2023-03-26T22:39:04.672Z,1.63
2023-03-26T22:41:14.089Z,2.42
2023-03-26T22:43:19.152Z,2.03
2023-03-26T22:45:24.015Z,2.05
2023-03-26T22:47:30.769Z,1.70
2023-03-26T22:49:35.979Z,1.88
2023-03-26T22:51:45.983Z,2.20
2023-03-26T22:53:51.014Z,1.70
2023-03-26T22:55:55.840Z,1.80
2023-03-26T22:58:00.763Z,2.55
2023-03-26T23:00:14.978Z,1.70
2023-03-26T23:02:19.955Z,2.47
2023-03-26T23:04:32.342Z,1.85
2023-03-26T23:06:37.385Z,2.33
2023-03-26T23:08:48.231Z,1.52
2023-03-26T23:10:55.869Z,1.85
2023-03-26T23:13:01.085Z,1.60
2023-03-26T23:15:06.553Z,1.75
2023-03-26T23:17:14.787Z,1.58
2023-03-26T23:19:20.116Z,1.63
2023-03-26T23:21:25.824Z,1.70
2023-03-26T23:23:32.989Z,1.58
2023-03-26T23:25:41.021Z,1.75
2023-03-26T23:27:46.019Z,1.63
2023-03-26T23:29:50.724Z,1.67
2023-03-26T23:31:56.352Z,1.70
2023-03-26T23:34:02.558Z,2.45
2023-03-26T23:36:10.272Z,2.40
2023-03-26T23:38:16.051Z,1.98
2023-03-26T23:40:22.076Z,2.30
2023-03-26T23:42:29.993Z,1.77
2023-03-26T23:44:35.184Z,1.83
2023-03-26T23:46:43.052Z,2.10
2023-03-26T23:48:51.194Z,1.95
2023-03-26T23:51:02.832Z,1.83
2023-03-26T23:55:17.455Z,2.13
2023-03-26T23:57:22.559Z,1.90
2023-03-26T23:59:30.148Z,1.27
